Time;durP1;ratioP1;P1;durP2;ratioP2;P2;SDS_P1;SDS_P2;PMS_P1;PMS_P2;Temp;Humidity;BMP_temperature;BMP_pressure;BME280_temperature;BME280_humidity;BME280_pressure;Samples;Min_cycle;Max_cycle;Signal;HPM_P1;HPM_P2
2021/07/15 00:01:14;;;;;;;0.30;0.30;;;;;;;13.39;88.66;92464.06;6167487;23;20110;-92
2021/07/15 00:07:07;;;;;;;0.60;0.60;;;;;;;13.41;89.74;92473.22;6169436;23;20036;-93
2021/07/15 00:10:08;;;;;;;;;;;;;;;;;;;;;
2021/07/15 00:12:34;;;;;;;0.30;0.30;;;;;;;13.22;88.69;92460.28;6166233;23;20029;-91
2021/07/15 00:15:23;;;;;;;0.30;0.30;;;;;;;13.28;88.72;92468.81;6187196;23;20420;-92
2021/07/15 00:18:51;;;;;;;0.20;0.20;;;;;;;13.18;89.19;92463.81;6212575;23;20101;-93
2021/07/15 00:21:33;;;;;;;0.77;0.77;;;;;;;13.25;89.48;92488.56;6182984;23;20025;-94
2021/07/15 00:24:27;;;;;;;;;;;;;;;;;;;;;
2021/07/15 00:27:05;;;;;;;0.30;0.30;;;;;;;13.02;90.08;92469.44;6187312;23;20083;-94
2021/07/15 00:29:36;;;;;;;0.40;0.40;;;;;;;12.99;89.95;92472.69;6163432;23;20036;-94
2021/07/15 00:32:25;;;;;;;0.20;0.20;;;;;;;13.17;89.91;92491.94;6191688;23;20021;-93
2021/07/15 00:35:40;;;;;;;0.40;0.40;;;;;;;13.40;90.12;92526.88;6213189;23;20028;-94
2021/07/15 00:38:52;;;;;;;;;;;;;;;;;;;;;
2021/07/15 00:42:04;;;;;;;0.60;0.60;;;;;;;13.29;90.61;92529.00;6195553;23;20076;-93
2021/07/15 00:45:18;;;;;;;;;;;;;;;;;;;;;
2021/07/15 00:48:47;;;;;;;;;;;;;;;;;;;;;
2021/07/15 00:51:49;;;;;;;;;;;;;;;;;;;;;
2021/07/15 00:55:14;;;;;;;0.30;0.30;;;;;;;12.96;90.89;92475.13;6198430;23;20032;-93
2021/07/15 00:58:22;;;;;;;;;;;;;;;;;;;;;
2021/07/15 01:01:01;;;;;;;0.30;0.30;;;;;;;12.93;90.33;92465.22;6203671;23;20021;-95
2021/07/15 01:04:15;;;;;;;0.30;0.30;;;;;;;13.00;91.39;92468.97;6168715;23;20024;-93
2021/07/15 01:07:34;;;;;;;0.40;0.40;;;;;;;13.20;90.58;92482.69;6190689;23;20100;-92
2021/07/15 01:14:01;;;;;;;0.40;0.40;;;;;;;13.44;90.78;92513.88;6188317;23;20099;-93
2021/07/15 01:17:24;;;;;;;;;;;;;;;;;;;;;
2021/07/15 01:20:57;;;;;;;0.30;0.30;;;;;;;13.17;90.21;92456.97;6213357;23;20314;-93
2021/07/15 01:23:41;;;;;;;0.30;0.30;;;;;;;13.43;89.85;92486.81;6159233;23;20083;-94
2021/07/15 01:26:44;;;;;;;1.65;0.60;;;;;;;13.45;90.47;92489.94;6161546;23;20472;-94
2021/07/15 01:29:38;;;;;;;0.25;0.25;;;;;;;13.44;90.38;92483.13;6189346;23;20542;-96
2021/07/15 01:33:19;;;;;;;;;;;;;;;;;;;;;
2021/07/15 01:36:18;;;;;;;;;;;;;;;;;;;;;
2021/07/15 01:39:38;;;;;;;0.30;0.30;;;;;;;12.96;90.97;92430.47;6212073;23;20035;-92
2021/07/15 01:42:26;;;;;;;0.30;0.30;;;;;;;13.03;90.77;92433.44;6189969;23;20100;-93
2021/07/15 01:45:21;;;;;;;0.35;0.35;;;;;;;13.31;91.33;92479.50;6189245;23;20168;-93
2021/07/15 01:48:25;;;;;;;0.50;0.50;;;;;;;13.02;90.48;92430.03;6163535;23;20020;-94
2021/07/15 01:51:24;;;;;;;;;;;;;;;;;;;;;
2021/07/15 01:54:34;;;;;;;;;;;;;;;;;;;;;
2021/07/15 01:57:26;;;;;;;0.40;0.40;;;;;;;12.93;89.70;92415.31;6187585;23;20408;-94
2021/07/15 02:00:46;;;;;;;;;;;;;;;;;;;;;
2021/07/15 02:03:47;;;;;;;0.95;0.50;;;;;;;12.93;89.54;92421.34;6211691;23;20025;-95
2021/07/15 02:06:23;;;;;;;0.20;0.20;;;;;;;12.88;89.48;92418.84;6190273;23;20040;-94
2021/07/15 02:09:04;;;;;;;0.40;0.40;;;;;;;12.89;89.96;92423.00;6189364;23;20566;-93
2021/07/15 02:11:48;;;;;;;0.57;0.57;;;;;;;12.89;90.27;92425.63;6191328;23;20017;-94
2021/07/15 02:14:36;;;;;;;0.30;0.30;;;;;;;12.93;90.43;92423.19;6165476;23;20020;-95
2021/07/15 02:17:20;;;;;;;0.22;0.22;;;;;;;13.02;90.41;92432.66;6189311;23;20028;-91
2021/07/15 02:20:02;;;;;;;0.35;0.35;;;;;;;13.00;90.19;92426.94;6165227;23;20107;-93
2021/07/15 02:23:07;;;;;;;0.20;0.20;;;;;;;12.92;89.94;92430.28;6191372;23;20261;-95
2021/07/15 02:25:48;;;;;;;0.40;0.40;;;;;;;12.88;90.96;92418.84;6169849;23;20027;-93
2021/07/15 02:29:00;;;;;;;2.20;0.50;;;;;;;12.86;90.68;92411.25;6167756;23;20013;-93
2021/07/15 02:31:44;;;;;;;0.30;0.30;;;;;;;12.90;91.06;92419.28;6215878;23;20385;-94
2021/07/15 02:34:55;;;;;;;0.70;0.70;;;;;;;12.90;90.60;92416.66;6170190;23;20051;-94
2021/07/15 02:38:17;;;;;;;0.28;0.28;;;;;;;13.10;90.34;92441.66;6217734;23;20020;-94
2021/07/15 02:41:18;;;;;;;;;;;;;;;;;;;;;
2021/07/15 02:44:23;;;;;;;0.20;0.20;;;;;;;12.94;88.66;92416.84;6166881;23;20037;-94
2021/07/15 02:47:30;;;;;;;;;;;;;;;;;;;;;
2021/07/15 02:50:50;;;;;;;;;;;;;;;;;;;;;
2021/07/15 02:54:01;;;;;;;;;;;;;;;;;;;;;
2021/07/15 02:57:09;;;;;;;0.30;0.30;;;;;;;13.12;85.72;92463.91;6155282;23;20031;-94
2021/07/15 02:59:56;;;;;;;;;;;;;;;;;;;;;
2021/07/15 03:03:21;;;;;;;;;;;;;;;;;;;;;
2021/07/15 03:06:07;;;;;;;0.30;0.30;;;;;;;12.95;86.88;92445.44;6181897;23;20025;-92
2021/07/15 03:08:56;;;;;;;0.20;0.20;;;;;;;12.82;87.42;92422.66;6132864;23;20013;-93
2021/07/15 03:11:47;;;;;;;0.30;0.30;;;;;;;12.94;87.35;92449.13;6168597;23;20091;-93
2021/07/15 03:14:27;;;;;;;0.25;0.25;;;;;;;12.67;87.64;92413.28;6163589;23;20019;-93
2021/07/15 03:17:17;;;;;;;;;;;;;;;;;;;;;
2021/07/15 03:20:20;;;;;;;0.40;0.40;;;;;;;12.63;88.41;92418.38;6184715;23;20044;-93
2021/07/15 03:23:25;;;;;;;0.20;0.20;;;;;;;12.60;87.94;92412.94;6162310;23;20104;-92
2021/07/15 03:26:26;;;;;;;;;;;;;;;;;;;;;
2021/07/15 03:29:18;;;;;;;0.30;0.30;;;;;;;12.70;88.41;92417.97;6188105;23;20024;-93
2021/07/15 03:32:37;;;;;;;0.20;0.20;;;;;;;12.74;88.20;92423.38;6112632;23;20028;-95
2021/07/15 03:35:28;;;;;;;0.30;0.30;;;;;;;12.84;88.19;92436.28;6132563;23;20199;-94
2021/07/15 03:38:50;;;;;;;;;;;;;;;;;;;;;
2021/07/15 03:41:37;;;;;;;;;;;;;;;;;;;;;
2021/07/15 03:44:41;;;;;;;0.30;0.30;;;;;;;12.96;87.30;92457.50;6158587;23;20013;-94
2021/07/15 03:47:41;;;;;;;0.20;0.20;;;;;;;12.70;87.93;92407.47;6160236;23;20017;-94
2021/07/15 03:50:45;;;;;;;;;;;;;;;13.04;87.27;92459.41;6161465;23;20084;-93
2021/07/15 03:53:25;;;;;;;;;;;;;;;13.02;86.97;92471.31;6183372;23;19983;-95
2021/07/15 03:56:04;;;;;;;0.20;0.20;;;;;;;12.85;86.86;92438.59;6132824;23;19920;-92
2021/07/15 03:59:03;;;;;;;0.28;0.28;;;;;;;12.57;86.97;92408.31;6162209;23;20013;-93
2021/07/15 04:02:10;;;;;;;;;;;;;;;;;;;;;
2021/07/15 04:04:55;;;;;;;0.20;0.20;;;;;;;12.57;85.82;92424.84;6158114;23;20052;-95
2021/07/15 04:24:26;;;;;;;;;;;;;;;;;;;;;
2021/07/15 05:32:16;;;;;;;0.30;0.30;;;;;;;14.02;86.55;92483.13;6242894;22;20031;-78
2021/07/15 05:38:14;;;;;;;0.30;0.30;;;;;;;14.30;85.87;92487.06;6251119;23;20004;-78
2021/07/15 05:40:39;;;;;;;0.30;0.30;;;;;;;14.38;85.49;92494.16;6251164;23;20008;-78
2021/07/15 05:43:05;;;;;;;0.40;0.40;;;;;;;14.38;85.81;92498.66;6198909;23;20019;-78
2021/07/15 05:45:31;;;;;;;0.30;0.30;;;;;;;14.46;85.89;92505.03;6196368;23;20031;-78
2021/07/15 05:47:57;;;;;;;0.40;0.40;;;;;;;14.48;86.14;92503.66;6220605;23;20039;-77
2021/07/15 05:50:23;;;;;;;0.20;0.20;;;;;;;14.46;84.68;92507.69;6243683;23;20008;-78
2021/07/15 05:52:49;;;;;;;0.20;0.20;;;;;;;14.40;83.04;92509.69;6218934;23;20012;-77
2021/07/15 05:55:15;;;;;;;0.40;0.40;;;;;;;14.23;83.09;92504.38;6244058;23;20015;-77
2021/07/15 05:57:40;;;;;;;0.20;0.20;;;;;;;14.18;83.84;92500.03;6245083;23;20012;-77
2021/07/15 06:00:08;;;;;;;0.22;0.22;;;;;;;14.15;84.00;92484.88;6246319;23;20432;-77
2021/07/15 06:02:34;;;;;;;0.20;0.20;;;;;;;14.19;84.19;92495.56;6221158;23;20059;-80
2021/07/15 06:05:00;;;;;;;0.20;0.20;;;;;;;14.15;83.45;92506.69;6247907;23;20387;-81
2021/07/15 06:07:27;;;;;;;0.20;0.20;;;;;;;14.21;83.82;92503.91;6245783;23;20012;-78
2021/07/15 06:09:53;;;;;;;0.22;0.22;;;;;;;14.25;84.62;92503.00;6245321;23;20020;-77
2021/07/15 06:12:19;;;;;;;0.20;0.20;;;;;;;14.34;83.90;92498.53;6244697;23;20007;-77
2021/07/15 06:14:45;;;;;;;1.05;0.35;;;;;;;14.69;84.13;92495.91;6220158;23;20012;-78
2021/07/15 06:17:11;;;;;;;0.20;0.20;;;;;;;15.20;82.39;92496.94;6196173;23;20016;-78
2021/07/15 06:19:36;;;;;;;0.30;0.30;;;;;;;15.32;81.45;92487.63;6246820;23;20008;-78
2021/07/15 06:22:20;;;;;;;0.30;0.30;;;;;;;15.59;81.67;92486.44;6244307;23;20443;-78
2021/07/15 06:24:46;;;;;;;0.60;0.60;;;;;;;17.37;76.57;92490.66;6245302;23;20463;-78
2021/07/15 06:27:12;;;;;;;0.50;0.50;;;;;;;19.17;71.02;92486.94;6220215;23;20000;-78
2021/07/15 06:32:04;;;;;;;0.30;0.30;;;;;;;19.81;63.49;92487.81;6246939;23;20016;-78
2021/07/15 06:34:29;;;;;;;0.30;0.30;;;;;;;18.69;65.66;92494.72;6246969;23;20016;-78
2021/07/15 06:36:55;;;;;;;0.40;0.40;;;;;;;18.27;67.59;92504.84;6246625;23;20103;-78
2021/07/15 06:39:21;;;;;;;0.30;0.30;;;;;;;17.89;70.98;92511.25;6246304;23;20003;-78
2021/07/15 06:41:46;;;;;;;0.20;0.20;;;;;;;16.32;77.40;92512.63;6219248;23;20031;-78
2021/07/15 06:44:13;;;;;;;0.30;0.30;;;;;;;16.96;76.58;92514.22;6219362;23;20074;-77
2021/07/15 06:46:40;;;;;;;0.28;0.28;;;;;;;16.85;77.43;92523.66;6219386;23;20070;-74
2021/07/15 06:49:06;;;;;;;0.32;0.32;;;;;;;16.42;80.22;92522.84;6217797;23;20430;-77
2021/07/15 06:51:35;;;;;;;0.38;0.38;;;;;;;16.59;78.52;92510.59;6244716;23;20012;-77
2021/07/15 06:54:01;;;;;;;0.35;0.35;;;;;;;16.67;76.94;92493.91;6217394;23;20015;-77
2021/07/15 06:56:26;;;;;;;0.25;0.25;;;;;;;17.02;76.94;92498.91;6244333;23;20436;-77
2021/07/15 06:58:52;;;;;;;0.20;0.20;;;;;;;17.22;74.69;92506.03;6244014;23;20035;-78
2021/07/15 07:01:17;;;;;;;0.28;0.28;;;;;;;16.41;80.59;92505.44;6244019;23;20019;-78
2021/07/15 07:03:43;;;;;;;0.20;0.20;;;;;;;16.02;82.03;92515.28;6246339;23;20016;-78
2021/07/15 07:06:09;;;;;;;0.30;0.30;;;;;;;15.24;84.59;92520.03;6246118;23;20080;-78
2021/07/15 07:08:34;;;;;;;0.20;0.20;;;;;;;15.07;86.23;92511.09;6247723;23;20393;-77
2021/07/15 07:11:00;;;;;;;0.47;0.47;;;;;;;15.35;86.21;92510.72;6219566;23;20012;-78
2021/07/15 07:13:26;;;;;;;0.30;0.30;;;;;;;15.61;82.89;92511.41;6246525;23;20016;-78
2021/07/15 07:15:52;;;;;;;0.30;0.30;;;;;;;15.43;83.59;92509.16;6246207;23;20043;-78
2021/07/15 07:18:17;;;;;;;0.35;0.35;;;;;;;15.61;82.38;92506.13;6219515;23;20066;-78
2021/07/15 07:20:43;;;;;;;0.40;0.40;;;;;;;16.24;82.06;92500.28;6245649;23;20059;-78
2021/07/15 07:23:13;;;;;;;0.30;0.30;;;;;;;17.21;78.51;92499.22;6248059;23;20020;-78
2021/07/15 07:25:44;;;;;;;0.90;0.43;;;;;;;18.05;76.52;92493.59;6221322;23;20268;-78
2021/07/15 07:28:10;;;;;;;1.40;0.50;;;;;;;18.43;71.71;92494.34;6247218;23;20111;-78
2021/07/15 07:30:36;;;;;;;0.20;0.20;;;;;;;18.45;69.45;92502.72;6246752;23;20020;-78
2021/07/15 07:33:02;;;;;;;0.30;0.30;;;;;;;17.76;73.18;92505.16;6246977;23;20095;-77
2021/07/15 07:35:28;;;;;;;0.32;0.32;;;;;;;16.97;74.97;92496.47;6246940;23;20023;-78
2021/07/15 07:37:54;;;;;;;0.25;0.25;;;;;;;17.14;77.11;92498.97;6248938;23;20444;-78
2021/07/15 07:40:20;;;;;;;0.35;0.35;;;;;;;17.38;76.25;92494.84;6249713;23;20000;-78
2021/07/15 07:42:47;;;;;;;0.88;0.70;;;;;;;17.77;74.24;92498.00;6221618;23;20348;-78
2021/07/15 07:45:14;;;;;;;0.20;0.20;;;;;;;16.69;76.17;92483.78;6247585;23;20087;-78
2021/07/15 07:47:40;;;;;;;0.20;0.20;;;;;;;17.02;79.52;92496.28;6220485;23;20042;-77
2021/07/15 07:50:08;;;;;;;0.38;0.38;;;;;;;17.28;77.84;92498.69;6221436;23;20008;-78
2021/07/15 07:52:34;;;;;;;0.40;0.40;;;;;;;17.07;75.60;92488.16;6248383;23;20034;-78
2021/07/15 07:55:00;;;;;;;0.55;0.55;;;;;;;16.48;76.98;92496.22;6221797;23;20016;-78
2021/07/15 07:57:25;;;;;;;0.30;0.30;;;;;;;17.20;75.64;92497.69;6221327;23;20012;-79
2021/07/15 07:59:53;;;;;;;0.30;0.30;;;;;;;17.03;80.28;92511.06;6245292;23;20436;-77
2021/07/15 08:02:20;;;;;;;0.40;0.40;;;;;;;17.42;78.13;92514.25;6245467;23;20031;-79
2021/07/15 08:04:46;;;;;;;0.20;0.20;;;;;;;17.74;74.21;92509.22;6218807;23;20019;-78
2021/07/15 08:07:15;;;;;;;0.40;0.40;;;;;;;17.84;76.62;92511.47;6246267;23;20023;-78
2021/07/15 08:09:45;;;;;;;0.30;0.30;;;;;;;18.07;74.69;92509.94;6246881;23;20016;-78
2021/07/15 08:12:15;;;;;;;0.45;0.45;;;;;;;18.01;73.27;92513.13;6245150;23;20036;-77
2021/07/15 08:14:42;;;;;;;0.38;0.38;;;;;;;18.19;74.06;92513.69;6244398;23;20004;-78
2021/07/15 08:17:09;;;;;;;0.45;0.45;;;;;;;17.10;70.57;92513.19;6218528;23;20091;-78
2021/07/15 08:19:35;;;;;;;0.28;0.28;;;;;;;18.06;73.51;92518.22;6246419;23;20012;-79
2021/07/15 08:22:02;;;;;;;0.30;0.30;;;;;;;18.30;66.76;92512.13;6246149;23;20083;-79
2021/07/15 08:24:27;;;;;;;0.30;0.30;;;;;;;18.50;65.35;92521.81;6245360;23;20023;-78
2021/07/15 08:26:53;;;;;;;0.30;0.30;;;;;;;17.60;67.85;92518.25;6245331;23;20444;-79
2021/07/15 08:29:18;;;;;;;0.22;0.22;;;;;;;17.72;75.76;92527.31;6244095;23;20016;-79
2021/07/15 08:31:45;;;;;;;0.47;0.47;;;;;;;18.00;70.29;92533.56;6243095;23;20404;-77
2021/07/15 08:34:11;;;;;;;0.28;0.28;;;;;;;17.87;68.31;92532.00;6243435;23;20348;-79
2021/07/15 08:36:37;;;;;;;0.32;0.32;;;;;;;17.71;74.44;92531.84;6243619;23;20103;-78
2021/07/15 08:39:04;;;;;;;0.43;0.43;;;;;;;17.61;73.58;92532.28;6243065;23;20011;-77
2021/07/15 08:41:30;;;;;;;0.40;0.40;;;;;;;17.64;71.29;92527.09;6243970;23;20008;-77
2021/07/15 08:43:55;;;;;;;0.25;0.25;;;;;;;17.72;75.10;92536.06;6243916;23;20392;-77
2021/07/15 08:46:23;;;;;;;0.30;0.30;;;;;;;17.52;66.72;92529.72;6215731;23;20046;-77
2021/07/15 08:48:49;;;;;;;0.38;0.38;;;;;;;17.86;70.44;92533.13;6241588;23;20012;-76
2021/07/15 08:51:15;;;;;;;0.20;0.20;;;;;;;17.75;69.07;92529.31;6245179;23;20007;-78
2021/07/15 08:53:44;;;;;;;0.20;0.20;;;;;;;18.25;68.06;92533.56;6217599;23;20470;-78
2021/07/15 08:59:00;;;;;;;3.05;0.52;;;;;;;18.42;68.51;92543.16;6243497;23;20079;-78
2021/07/15 09:01:30;;;;;;;0.20;0.20;;;;;;;18.48;64.43;92542.56;6243136;23;20023;-77
2021/07/15 09:03:56;;;;;;;0.20;0.20;;;;;;;18.07;62.17;92536.41;6244149;23;20012;-78
2021/07/15 09:06:22;;;;;;;0.25;0.25;;;;;;;17.75;68.08;92532.72;6244399;23;20031;-78
2021/07/15 09:08:50;;;;;;;0.20;0.20;;;;;;;17.67;66.97;92533.59;6217455;23;20027;-77
2021/07/15 09:11:15;;;;;;;0.20;0.20;;;;;;;17.78;65.78;92536.59;6243463;23;20012;-76
2021/07/15 09:13:42;;;;;;;0.15;0.15;;;;;;;17.51;68.17;92527.41;6247952;23;20325;-75
2021/07/15 09:16:15;;;;;;;0.20;0.20;;;;;;;17.44;66.86;92512.06;6246712;23;20012;-77
2021/07/15 09:19:03;;;;;;;0.30;0.30;;;;;;;17.45;68.77;92517.03;6220840;23;20016;-77
2021/07/15 09:21:35;;;;;;;0.20;0.20;;;;;;;17.83;69.89;92518.66;6246887;23;20012;-77
2021/07/15 09:24:02;;;;;;;0.20;0.20;;;;;;;18.05;68.67;92519.31;6247516;23;20012;-76
2021/07/15 09:26:29;;;;;;;0.30;0.30;;;;;;;18.09;69.43;92515.69;6246646;23;20007;-77
2021/07/15 09:29:11;;;;;;;0.98;0.63;;;;;;;18.26;65.85;92508.59;6246609;23;20016;-77
2021/07/15 09:31:50;;;;;;;0.20;0.20;;;;;;;18.05;69.65;92509.50;6220230;23;20078;-77
2021/07/15 09:34:16;;;;;;;0.20;0.20;;;;;;;18.38;66.16;92508.59;6245011;23;20038;-76
2021/07/15 09:36:45;;;;;;;0.70;0.70;;;;;;;18.40;67.98;92502.97;6246536;23;20020;-77
2021/07/15 09:39:22;;;;;;;0.30;0.30;;;;;;;18.33;67.52;92502.75;6248015;23;20508;-78
2021/07/15 09:42:14;;;;;;;0.40;0.40;;;;;;;18.50;65.16;92505.16;6250238;23;20039;-77
2021/07/15 09:44:43;;;;;;;0.35;0.35;;;;;;;18.57;62.42;92513.31;6220275;23;20023;-77
2021/07/15 09:47:30;;;;;;;0.30;0.30;;;;;;;19.18;67.60;92525.63;6247948;23;20008;-78
2021/07/15 09:49:56;;;;;;;0.20;0.20;;;;;;;19.22;65.04;92515.13;6221361;23;20096;-77
2021/07/15 09:52:22;;;;;;;0.20;0.20;;;;;;;19.26;60.97;92508.78;6244989;23;20095;-75
2021/07/15 09:54:48;;;;;;;0.28;0.28;;;;;;;19.16;63.26;92525.19;6220391;23;20023;-76
2021/07/15 09:57:27;;;;;;;0.20;0.20;;;;;;;19.23;62.11;92517.44;6219712;23;20348;-77
2021/07/15 09:59:55;;;;;;;0.28;0.28;;;;;;;18.81;61.12;92522.34;6219852;23;20012;-77
2021/07/15 10:02:32;;;;;;;0.20;0.20;;;;;;;19.42;61.69;92516.03;6220671;23;20012;-76
2021/07/15 10:04:58;;;;;;;0.47;0.47;;;;;;;18.57;65.51;92517.84;6246977;23;20091;-77
2021/07/15 10:07:25;;;;;;;0.45;0.45;;;;;;;18.60;62.16;92522.47;6249142;23;20012;-77
2021/07/15 10:10:16;;;;;;;0.30;0.30;;;;;;;19.63;61.77;92521.09;6248910;23;20039;-77
2021/07/15 10:12:42;;;;;;;0.20;0.20;;;;;;;19.92;61.31;92519.94;6221338;23;20016;-77
2021/07/15 10:15:13;;;;;;;0.30;0.30;;;;;;;19.02;62.56;92530.88;6247059;23;20000;-77
2021/07/15 10:17:44;;;;;;;0.10;0.10;;;;;;;19.26;60.54;92531.91;6247064;23;20244;-77
2021/07/15 10:20:15;;;;;;;2.03;1.23;;;;;;;19.69;61.39;92525.06;6222357;23;20008;-77
2021/07/15 10:22:42;;;;;;;0.30;0.30;;;;;;;19.20;62.12;92549.94;6220471;23;20020;-77
2021/07/15 10:25:12;;;;;;;0.13;0.13;;;;;;;18.94;61.05;92537.13;6245978;23;20039;-76
2021/07/15 10:27:39;;;;;;;0.20;0.20;;;;;;;18.59;62.48;92539.47;6218399;23;20355;-77
2021/07/15 10:30:09;;;;;;;0.20;0.20;;;;;;;18.82;63.32;92543.19;6242410;23;20020;-76
2021/07/15 10:32:37;;;;;;;0.28;0.28;;;;;;;18.49;63.23;92543.38;6244015;23;20012;-76
2021/07/15 10:35:08;;;;;;;0.85;0.85;;;;;;;18.61;65.38;92539.91;6244565;23;20422;-77
2021/07/15 10:37:39;;;;;;;0.22;0.22;;;;;;;18.80;62.38;92537.50;6244104;23;20075;-77
2021/07/15 10:40:10;;;;;;;0.25;0.25;;;;;;;19.32;60.75;92539.28;6246893;23;20004;-78
2021/07/15 10:42:37;;;;;;;0.43;0.30;;;;;;;19.04;60.83;92536.63;6245882;23;20012;-77
2021/07/15 10:45:05;;;;;;;1.77;1.65;;;;;;;18.85;62.87;92544.44;6245302;23;20000;-77
2021/07/15 10:47:31;;;;;;;0.30;0.30;;;;;;;18.84;62.77;92542.88;6244989;23;20067;-76
2021/07/15 10:49:58;;;;;;;0.30;0.30;;;;;;;18.72;64.21;92548.97;6193031;23;20091;-76
2021/07/15 10:52:25;;;;;;;0.25;0.25;;;;;;;18.83;63.77;92546.66;6217973;23;20020;-77
2021/07/15 10:54:52;;;;;;;0.43;0.32;;;;;;;18.80;63.62;92553.41;6244503;23;20007;-77
2021/07/15 10:57:23;;;;;;;0.40;0.40;;;;;;;18.50;66.15;92543.03;6244975;23;20040;-77
2021/07/15 10:59:50;;;;;;;0.20;0.20;;;;;;;18.59;63.78;92542.91;6218447;23;20466;-79
2021/07/15 11:02:25;;;;;;;0.20;0.20;;;;;;;18.49;64.41;92535.41;6247012;23;20008;-79
2021/07/15 11:04:53;;;;;;;0.32;0.32;;;;;;;18.25;66.00;92541.50;6245344;23;20034;-77
2021/07/15 11:07:28;;;;;;;0.20;0.20;;;;;;;18.53;64.59;92538.94;6244270;23;20000;-77
2021/07/15 11:10:15;;;;;;;0.20;0.20;;;;;;;18.40;67.33;92534.78;6216079;23;20012;-76
2021/07/15 11:13:00;;;;;;;0.52;0.45;;;;;;;18.63;65.41;92530.53;6243567;23;20344;-76
2021/07/15 11:15:44;;;;;;;0.20;0.20;;;;;;;18.42;67.95;92543.94;6216805;23;20017;-76
2021/07/15 11:18:44;;;;;;;0.15;0.15;;;;;;;18.13;68.62;92542.28;6216457;23;20344;-76
2021/07/15 11:21:25;;;;;;;0.30;0.30;;;;;;;18.58;68.16;92551.22;6247768;23;20012;-78
2021/07/15 11:24:04;;;;;;;0.20;0.20;;;;;;;18.49;67.54;92554.75;6220495;23;20016;-77
2021/07/15 11:26:32;;;;;;;0.45;0.45;;;;;;;18.74;65.93;92549.41;6221606;23;20024;-77
2021/07/15 11:29:00;;;;;;;0.20;0.20;;;;;;;18.91;66.98;92546.53;6247477;23;20052;-77
2021/07/15 11:31:43;;;;;;;0.30;0.30;;;;;;;19.21;65.42;92546.19;6219690;23;20027;-77
2021/07/15 11:34:10;;;;;;;0.30;0.30;;;;;;;19.42;65.54;92558.50;6219515;23;20098;-77
2021/07/15 11:36:36;;;;;;;0.40;0.40;;;;;;;19.86;65.32;92558.50;6219137;23;20095;-77
2021/07/15 11:39:04;;;;;;;0.28;0.28;;;;;;;19.91;63.05;92550.28;6219494;23;20158;-77
2021/07/15 11:41:47;;;;;;;0.55;0.45;;;;;;;20.33;61.45;92549.75;6218905;23;20023;-77
2021/07/15 11:44:15;;;;;;;0.30;0.30;;;;;;;20.57;61.43;92556.78;6245866;23;20060;-77
2021/07/15 11:46:42;;;;;;;0.40;0.40;;;;;;;19.88;61.63;92562.38;6246769;23;20057;-77
2021/07/15 11:49:12;;;;;;;0.17;0.17;;;;;;;19.19;62.85;92564.34;6248057;23;20012;-77
2021/07/15 11:51:46;;;;;;;0.22;0.22;;;;;;;19.78;63.64;92559.44;6220886;23;20030;-77
2021/07/15 11:54:17;;;;;;;0.25;0.25;;;;;;;20.06;62.41;92557.50;6221295;23;20011;-78
2021/07/15 11:56:49;;;;;;;0.32;0.32;;;;;;;19.42;64.12;92561.91;6221452;23;20077;-77
2021/07/15 11:59:46;;;;;;;0.25;0.25;;;;;;;19.55;62.96;92560.75;6221442;23;20008;-77
2021/07/15 12:02:39;;;;;;;0.60;0.50;;;;;;;19.48;64.37;92565.09;6194599;23;20448;-77
2021/07/15 12:05:28;;;;;;;0.50;0.32;;;;;;;19.27;64.26;92557.31;6220454;23;20016;-77
2021/07/15 12:08:13;;;;;;;0.43;0.43;;;;;;;19.47;64.19;92564.31;6220440;23;20031;-77
2021/07/15 12:10:46;;;;;;;0.35;0.35;;;;;;;18.90;63.39;92562.75;6247297;23;20009;-78
2021/07/15 12:13:14;;;;;;;0.55;0.50;;;;;;;19.04;64.04;92560.50;6220696;23;20016;-78
2021/07/15 12:15:43;;;;;;;0.38;0.38;;;;;;;19.05;65.10;92563.91;6220438;23;20432;-77
2021/07/15 12:18:17;;;;;;;0.40;0.38;;;;;;;19.07;64.48;92567.00;6247445;23;20019;-78
2021/07/15 12:20:48;;;;;;;0.40;0.40;;;;;;;19.01;64.55;92561.19;6247164;23;20026;-78
2021/07/15 12:23:21;;;;;;;0.47;0.47;;;;;;;19.10;64.24;92558.41;6246775;23;20011;-77
2021/07/15 12:25:53;;;;;;;0.30;0.30;;;;;;;18.76;66.10;92560.44;6247239;23;20008;-77
2021/07/15 12:28:27;;;;;;;0.70;0.65;;;;;;;19.00;64.50;92556.22;6220199;23;20576;-78
2021/07/15 12:31:03;;;;;;;0.30;0.30;;;;;;;19.19;64.22;92558.25;6214305;23;20060;-77
2021/07/15 12:33:39;;;;;;;0.30;0.30;;;;;;;19.66;63.75;92553.06;6214881;23;20020;-78
2021/07/15 12:36:16;;;;;;;0.35;0.35;;;;;;;20.02;63.91;92555.84;6215116;23;20016;-77
2021/07/15 12:38:45;;;;;;;0.40;0.40;;;;;;;20.32;61.56;92559.59;6216948;23;20084;-77
2021/07/15 12:41:26;;;;;;;0.10;0.10;;;;;;;20.42;62.04;92554.88;6214556;23;20025;-78
2021/07/15 12:43:57;;;;;;;0.25;0.25;;;;;;;20.96;60.40;92549.66;6216340;23;20009;-78
2021/07/15 12:46:36;;;;;;;0.40;0.40;;;;;;;21.81;58.85;92549.72;6215320;23;20016;-77
2021/07/15 12:49:05;;;;;;;0.30;0.30;;;;;;;21.66;59.41;92550.63;6215626;23;20528;-78
2021/07/15 12:51:48;;;;;;;0.40;0.40;;;;;;;21.47;58.18;92537.31;6215310;23;20016;-78
2021/07/15 12:54:35;;;;;;;0.20;0.20;;;;;;;21.98;58.05;92537.84;6241039;23;20040;-77
2021/07/15 12:57:04;;;;;;;0.40;0.40;;;;;;;21.36;60.57;92535.19;6217496;23;20024;-78
2021/07/15 12:59:30;;;;;;;0.35;0.32;;;;;;;20.77;61.05;92536.31;6215715;23;20004;-78
2021/07/15 13:01:56;;;;;;;0.38;0.38;;;;;;;20.75;60.13;92527.91;6216167;23;20015;-76
2021/07/15 13:04:23;;;;;;;0.30;0.30;;;;;;;20.77;58.05;92520.34;6215423;23;20013;-77
2021/07/15 13:06:52;;;;;;;0.30;0.30;;;;;;;21.08;59.85;92518.69;6215276;23;20013;-76
2021/07/15 13:09:27;;;;;;;0.25;0.25;;;;;;;20.30;61.73;92524.63;6214818;23;20071;-79
2021/07/15 13:14:45;;;;;;;0.40;0.40;;;;;;;19.54;63.62;92534.53;6216134;23;20036;-78
2021/07/15 13:17:12;;;;;;;0.68;0.63;;;;;;;19.46;63.85;92527.50;6214797;23;20012;-77
2021/07/15 13:19:43;;;;;;;0.20;0.20;;;;;;;19.51;64.11;92538.63;6215016;23;20393;-77
2021/07/15 13:22:17;;;;;;;0.20;0.20;;;;;;;19.97;62.81;92525.00;6215261;23;20009;-78
2021/07/15 13:24:58;;;;;;;0.20;0.20;;;;;;;20.29;61.33;92535.63;6215830;23;20043;-78
2021/07/15 13:27:24;;;;;;;0.30;0.30;;;;;;;19.89;62.17;92531.25;6216587;23;20063;-78
2021/07/15 13:29:50;;;;;;;0.28;0.25;;;;;;;19.88;63.90;92535.81;6217749;23;20012;-78
2021/07/15 13:32:18;;;;;;;0.40;0.40;;;;;;;20.04;61.58;92537.66;6221123;23;20027;-78
2021/07/15 13:34:55;;;;;;;0.60;0.60;;;;;;;20.25;60.36;92521.47;6247214;23;20451;-78
2021/07/15 13:37:47;;;;;;;0.30;0.30;;;;;;;20.49;59.71;92531.09;6248088;23;20518;-78
2021/07/15 13:40:25;;;;;;;0.27;0.27;;;;;;;21.45;58.83;92521.69;6214592;23;20026;-78
2021/07/15 13:43:11;;;;;;;0.70;0.52;;;;;;;21.92;57.27;92527.84;6248174;23;20243;-78
2021/07/15 13:45:41;;;;;;;0.30;0.30;;;;;;;21.74;57.41;92527.53;6247957;23;20019;-78
2021/07/15 13:48:18;;;;;;;0.57;0.50;;;;;;;21.52;57.20;92537.78;6248379;23;20011;-78
2021/07/15 13:50:46;;;;;;;0.40;0.40;;;;;;;21.65;56.54;92535.75;6220665;23;20142;-78
2021/07/15 13:53:14;;;;;;;0.40;0.40;;;;;;;22.14;58.00;92540.38;6196104;23;20015;-78
2021/07/15 13:55:42;;;;;;;0.80;0.70;;;;;;;22.02;58.16;92540.56;6248543;23;20017;-77
2021/07/15 13:58:14;;;;;;;0.73;0.68;;;;;;;22.34;57.08;92548.34;6246604;23;20016;-78
2021/07/15 14:00:46;;;;;;;;;;;;;;;22.31;56.63;92549.03;6250560;23;20024;-77
2021/07/15 14:03:15;;;;;;;0.20;0.20;;;;;;;21.73;54.02;92541.97;6249915;23;19911;-78
2021/07/15 14:05:41;;;;;;;0.40;0.40;;;;;;;21.04;58.46;92542.56;6250400;23;20089;-78
2021/07/15 14:08:08;;;;;;;0.38;0.30;;;;;;;20.59;59.47;92539.34;6224041;23;20071;-78
2021/07/15 14:10:36;;;;;;;0.38;0.38;;;;;;;20.48;61.02;92529.56;6249761;23;20008;-77
2021/07/15 14:13:02;;;;;;;0.68;0.45;;;;;;;20.72;58.66;92533.94;6223677;23;20026;-77
2021/07/15 14:15:31;;;;;;;0.47;0.47;;;;;;;20.59;58.34;92528.72;6223661;23;20035;-78
2021/07/15 14:18:00;;;;;;;0.35;0.35;;;;;;;20.58;60.34;92524.53;6251201;23;20012;-78
2021/07/15 14:20:26;;;;;;;0.30;0.30;;;;;;;20.84;57.50;92525.06;6250772;23;20015;-77
2021/07/15 14:22:51;;;;;;;2.75;0.77;;;;;;;20.66;60.68;92522.78;6248727;23;20019;-77
2021/07/15 14:25:17;;;;;;;0.20;0.20;;;;;;;20.28;62.20;92526.09;6250260;23;20012;-77
2021/07/15 14:27:44;;;;;;;0.40;0.40;;;;;;;20.08;62.96;92531.31;6250060;23;20016;-78
2021/07/15 14:30:11;;;;;;;0.45;0.40;;;;;;;19.74;64.28;92530.91;6248179;23;20020;-77
2021/07/15 14:32:36;;;;;;;0.35;0.35;;;;;;;19.81;62.62;92532.97;6248493;23;20012;-77
2021/07/15 14:35:04;;;;;;;0.75;0.65;;;;;;;19.51;62.39;92529.91;6221012;23;20024;-77
2021/07/15 14:37:30;;;;;;;0.30;0.30;;;;;;;19.61;63.45;92526.75;6220711;23;20071;-77
2021/07/15 14:39:56;;;;;;;0.25;0.25;;;;;;;19.34;64.20;92526.47;6247999;23;20035;-78